North American — WBL7959 — position and weather

sailwx.info

Track history (hours):
 
Tides and Currents Weather Stations Pressure Air Temp Water Temp Dewpoint Dewpoint Depression Visibility Wind Speed Wind Dir Waves Ship Positions

North American

Owner: NORTH AMERICAN INC, SEATTLE, WA. More information available from US FCC via Universal Licensing System and Coast Guard Vessel Documentation Center.

Last reported at 2016-Jun-21 09:13 UTC. Time now 2016-Jul-02 04:02 UTC.
Position N 51°10' W 127°51'.
Warning: this ship's position is 10 days out of date.

Length 32 m; draft 2.5 m.

Type: Fishing. MMSI: 367307370.

Date/timePositionNaut miles runAvg speedWind from/ knotsBaromVisibWave heightAir tempDewpointWater temp
2016-Jun-21 09:13N 51°10' W 127°51'6 9.4
2016-Jun-21 08:33N 51°04' W 127°48'9 9.3
2016-Jun-21 07:33N 50°56' W 127°40'9 9.2
2016-Jun-21 06:33N 50°51' W 127°28'84 9.1
2016-Jun-20 21:21N 50°20' W 125°26'7 9.0
2016-Jun-20 20:33N 50°13' W 125°22'8 7.5
2016-Jun-20 19:33N 50°06' W 125°17'1010.2
2016-Jun-20 18:33N 49°57' W 125°09'1110.6
2016-Jun-20 17:33N 49°50' W 124°57'1010.3
2016-Jun-20 16:33N 49°42' W 124°47'10 9.9
2016-Jun-20 15:33N 49°35' W 124°36'10 9.8
2016-Jun-20 14:33N 49°28' W 124°25'1010.0
2016-Jun-20 13:33N 49°23' W 124°12'10 9.9
2016-Jun-20 12:33N 49°18' W 123°58'10 9.8
2016-Jun-20 11:33N 49°13' W 123°46'1010.3
2016-Jun-20 10:33N 49°07' W 123°33'1010.3
2016-Jun-20 09:34N 48°59' W 123°24'8 8.0
2016-Jun-20 08:30N 48°50' W 123°21'10 9.6
2016-Jun-20 07:27N 48°41' W 123°15'910.0
2016-Jun-20 06:34N 48°33' W 123°11'10 9.4
2016-Jun-20 05:33N 48°25' W 123°02'3411.5
2016-Jun-20 02:33N 47°57' W 122°32'1110.7
2016-Jun-20 01:33N 47°48' W 122°25'8 7.6
2016-Jun-20 00:33N 47°40' W 122°24'1 1.2
2016-Jun-19 23:32N 47°39' W 122°22'0 0.0
2016-Jun-19 22:32N 47°39' W 122°22'0 0.0
2016-Jun-19 21:32N 47°39' W 122°22'0 0.0
2016-Jun-19 20:32N 47°39' W 122°22'0 0.0
2016-Jun-19 19:33N 47°39' W 122°22'0 0.0
2016-Jun-19 18:32N 47°39' W 122°22'0 0.0
2016-Jun-19 17:33N 47°39' W 122°22'0 0.0
2016-Jun-19 16:33N 47°39' W 122°22'0 0.0
2016-Jun-19 15:33N 47°39' W 122°22'0 0.0
2016-Jun-19 14:32N 47°39' W 122°22'0 0.0
2016-Jun-19 13:32N 47°39' W 122°22'0 0.0
2016-Jun-19 12:32N 47°39' W 122°22'0 0.0
2016-Jun-19 11:32N 47°39' W 122°22'0 0.0
2016-Jun-19 10:32N 47°39' W 122°22'0 0.0
2016-Jun-19 09:33N 47°39' W 122°22'0 0.0
2016-Jun-19 08:32N 47°39' W 122°22'0 0.0
2016-Jun-19 07:33N 47°39' W 122°22'0 0.0
2016-Jun-19 06:33N 47°39' W 122°22'0 0.0
2016-Jun-19 05:32N 47°39' W 122°22'0 0.0
2016-Jun-19 04:32N 47°39' W 122°22'0 0.0
2016-Jun-19 03:32N 47°39' W 122°22'0 0.0
2016-Jun-19 02:33N 47°39' W 122°22'0 0.0
2016-Jun-19 01:33N 47°39' W 122°22'0 0.0
2016-Jun-19 00:32N 47°39' W 122°22'0 0.0
2016-Jun-18 23:32N 47°39' W 122°22'0 0.0
2016-Jun-18 22:33N 47°39' W 122°22'0 0.0
2016-Jun-18 21:33N 47°39' W 122°22'0 0.0
2016-Jun-18 20:33N 47°39' W 122°22'0 0.0
2016-Jun-18 19:33N 47°39' W 122°22'0 0.0
2016-Jun-18 18:33N 47°39' W 122°22'0 0.0
2016-Jun-18 17:33N 47°39' W 122°22'0 0.0
2016-Jun-18 16:33N 47°39' W 122°22'0 0.0
2016-Jun-18 15:32N 47°39' W 122°22'0 0.0
2016-Jun-18 14:33N 47°39' W 122°22'0 0.0
2016-Jun-18 13:33N 47°39' W 122°22'0 0.0
2016-Jun-18 12:33N 47°39' W 122°22'0 0.0
2016-Jun-18 11:33N 47°39' W 122°22'0 0.0
2016-Jun-18 10:33N 47°39' W 122°22'0 0.0
2016-Jun-18 09:33N 47°39' W 122°22'0 0.0
2016-Jun-18 08:33N 47°39' W 122°22'0 0.0
2016-Jun-18 07:32N 47°39' W 122°22'0 0.0
2016-Jun-18 06:33N 47°39' W 122°22'0 0.0
2016-Jun-18 05:33N 47°39' W 122°22'0 0.0
2016-Jun-18 04:30N 47°39' W 122°22'0 0.0
2016-Jun-18 03:32N 47°39' W 122°22'0 0.0
2016-Jun-18 02:32N 47°39' W 122°22'0 0.0
2016-Jun-18 01:32N 47°39' W 122°22'0 0.0
2016-Jun-18 00:30N 47°39' W 122°22'0 0.0
2016-Jun-17 23:30N 47°39' W 122°22'0 0.0
2016-Jun-17 22:29N 47°39' W 122°22'0 0.0
2016-Jun-17 21:32N 47°39' W 122°22'0 0.0
2016-Jun-17 20:32N 47°39' W 122°22'0 0.0
2016-Jun-17 19:32N 47°39' W 122°22'0 0.0
2016-Jun-17 18:32N 47°39' W 122°22'0 0.0
2016-Jun-17 17:33N 47°39' W 122°22'0 0.0
2016-Jun-17 16:33N 47°39' W 122°22'0 0.0
2016-Jun-17 15:33N 47°39' W 122°22'0 0.0
2016-Jun-17 14:31N 47°39' W 122°22'0 0.0
2016-Jun-17 13:31N 47°39' W 122°22'0 0.0
2016-Jun-17 12:32N 47°39' W 122°22'0 0.0
2016-Jun-17 11:32N 47°39' W 122°22'0 0.0
2016-Jun-17 10:32N 47°39' W 122°22'0 0.0
2016-Jun-17 09:32N 47°39' W 122°22'0 0.0
2016-Jun-17 08:32N 47°39' W 122°22'0 0.0
2016-Jun-17 07:32N 47°39' W 122°22'0 0.0
2016-Jun-17 06:32N 47°39' W 122°22'0 0.0
2016-Jun-17 05:32N 47°39' W 122°22'0 0.0
2016-Jun-17 04:31N 47°39' W 122°22'0 0.0
2016-Jun-17 03:32N 47°39' W 122°22'0 0.0
2016-Jun-17 02:31N 47°39' W 122°22'0 0.0
2016-Jun-17 01:31N 47°39' W 122°22'0 0.0
2016-Jun-17 00:28N 47°39' W 122°22'0 0.0
2016-Jun-16 23:32N 47°39' W 122°22'0 0.0
2016-Jun-16 22:31N 47°39' W 122°22'0 0.0
2016-Jun-16 21:31N 47°39' W 122°22'0 0.0
2016-Jun-16 20:31N 47°39' W 122°22'0 0.0
2016-Jun-16 19:31N 47°39' W 122°22'0 0.0
2016-Jun-16 18:31N 47°39' W 122°22'0 0.0
2016-Jun-16 17:32N 47°39' W 122°22'0 0.0
2016-Jun-16 16:31N 47°39' W 122°22'0 0.0
2016-Jun-16 15:31N 47°39' W 122°22'0 0.0
2016-Jun-16 14:31N 47°39' W 122°22'0 0.0
2016-Jun-16 13:32N 47°39' W 122°22'0 0.0
2016-Jun-16 12:31N 47°39' W 122°22'0 0.0
2016-Jun-16 11:31N 47°39' W 122°22'0 0.0
2016-Jun-16 10:32N 47°39' W 122°22'0 0.0
2016-Jun-16 09:31N 47°39' W 122°22'0 0.0
2016-Jun-16 08:31N 47°39' W 122°22'0 0.0
2016-Jun-16 07:32N 47°39' W 122°22'0 0.0
2016-Jun-16 06:31N 47°39' W 122°22'0 0.0
2016-Jun-16 05:31N 47°39' W 122°22'0 0.0
2016-Jun-16 04:32N 47°39' W 122°22'0 0.0
2016-Jun-16 03:26N 47°39' W 122°22'0 0.0
2016-Jun-16 02:31N 47°39' W 122°22'0 0.0
2016-Jun-16 01:32N 47°39' W 122°22'0 0.0
2016-Jun-16 00:31N 47°39' W 122°22'0 0.0
2016-Jun-15 23:32N 47°39' W 122°22'0 0.0
2016-Jun-15 22:32N 47°39' W 122°22'0 0.0
2016-Jun-15 21:32N 47°39' W 122°22'0 0.0
2016-Jun-15 20:32N 47°39' W 122°22'0 0.0
2016-Jun-15 19:32N 47°39' W 122°22'0 0.0
2016-Jun-15 18:32N 47°39' W 122°22'0 0.0
2016-Jun-15 17:33N 47°39' W 122°22'0 0.0
2016-Jun-15 16:32N 47°39' W 122°22'0 0.0
2016-Jun-15 15:30N 47°39' W 122°22'0 0.0
2016-Jun-15 14:32N 47°39' W 122°22'0 0.0
2016-Jun-15 13:32N 47°39' W 122°22'0 0.0
2016-Jun-15 12:33N 47°39' W 122°22'0 0.0
2016-Jun-15 11:33N 47°39' W 122°22'0 0.0
2016-Jun-15 10:33N 47°39' W 122°22'0 0.0
2016-Jun-15 09:32N 47°39' W 122°22'0 0.0
2016-Jun-15 08:32N 47°39' W 122°22'0 0.0
2016-Jun-15 07:33N 47°39' W 122°22'0 0.0
2016-Jun-15 06:33N 47°39' W 122°22'0 0.0
2016-Jun-15 05:33N 47°39' W 122°22'0 0.0
2016-Jun-15 04:32N 47°39' W 122°22'0 0.0
2016-Jun-15 03:33N 47°39' W 122°22'0 0.0
2016-Jun-15 02:32N 47°39' W 122°22'0 0.0
2016-Jun-15 01:33N 47°39' W 122°22'0 0.0
2016-Jun-15 00:32N 47°39' W 122°22'0 0.0
2016-Jun-14 23:33N 47°39' W 122°22'0 0.0
2016-Jun-14 22:32N 47°39' W 122°22'1 1.0
2016-Jun-14 21:33N 47°40' W 122°23'0 0.0
2016-Jun-14 20:33N 47°40' W 122°23'0 0.0
2016-Jun-14 15:31N 47°40' W 122°23'0 0.0
2016-Jun-14 14:31N 47°40' W 122°23'0 0.0
2016-Jun-14 13:31N 47°40' W 122°23'0 0.0
2016-Jun-13 23:08N 47°40' W 122°23'1 1.5
2016-Jun-13 22:34N 47°40' W 122°22'  
Track history (hours):
 
Tides and Currents Weather Stations Pressure Air Temp Water Temp Dewpoint Dewpoint Depression Visibility Wind Speed Wind Dir Waves Ship Positions

North American

Owner: NORTH AMERICAN INC, SEATTLE, WA. More information available from US FCC via Universal Licensing System and Coast Guard Vessel Documentation Center.

Last reported at 2016-Jun-21 09:13 UTC. Time now 2016-Jul-02 04:02 UTC.
Position N 51°10' W 127°51'.
Warning: this ship's position is 10 days out of date.

Length 32 m; draft 2.5 m.

Type: Fishing. MMSI: 367307370.

Date/timePositionNaut miles runAvg speedWind from/ knotsBaromVisibWave heightAir tempDewpointWater temp
2016-Jun-21 09:13N 51°10' W 127°51'6 9.4
2016-Jun-21 08:33N 51°04' W 127°48'9 9.3
2016-Jun-21 07:33N 50°56' W 127°40'9 9.2
2016-Jun-21 06:33N 50°51' W 127°28'84 9.1
2016-Jun-20 21:21N 50°20' W 125°26'7 9.0
2016-Jun-20 20:33N 50°13' W 125°22'8 7.5
2016-Jun-20 19:33N 50°06' W 125°17'1010.2
2016-Jun-20 18:33N 49°57' W 125°09'1110.6
2016-Jun-20 17:33N 49°50' W 124°57'1010.3
2016-Jun-20 16:33N 49°42' W 124°47'10 9.9
2016-Jun-20 15:33N 49°35' W 124°36'10 9.8
2016-Jun-20 14:33N 49°28' W 124°25'1010.0
2016-Jun-20 13:33N 49°23' W 124°12'10 9.9
2016-Jun-20 12:33N 49°18' W 123°58'10 9.8
2016-Jun-20 11:33N 49°13' W 123°46'1010.3
2016-Jun-20 10:33N 49°07' W 123°33'1010.3
2016-Jun-20 09:34N 48°59' W 123°24'8 8.0
2016-Jun-20 08:30N 48°50' W 123°21'10 9.6
2016-Jun-20 07:27N 48°41' W 123°15'910.0
2016-Jun-20 06:34N 48°33' W 123°11'10 9.4
2016-Jun-20 05:33N 48°25' W 123°02'3411.5
2016-Jun-20 02:33N 47°57' W 122°32'1110.7
2016-Jun-20 01:33N 47°48' W 122°25'8 7.6
2016-Jun-20 00:33N 47°40' W 122°24'1 1.2
2016-Jun-19 23:32N 47°39' W 122°22'0 0.0
2016-Jun-19 22:32N 47°39' W 122°22'0 0.0
2016-Jun-19 21:32N 47°39' W 122°22'0 0.0
2016-Jun-19 20:32N 47°39' W 122°22'0 0.0
2016-Jun-19 19:33N 47°39' W 122°22'0 0.0
2016-Jun-19 18:32N 47°39' W 122°22'0 0.0
2016-Jun-19 17:33N 47°39' W 122°22'0 0.0
2016-Jun-19 16:33N 47°39' W 122°22'0 0.0
2016-Jun-19 15:33N 47°39' W 122°22'0 0.0
2016-Jun-19 14:32N 47°39' W 122°22'0 0.0
2016-Jun-19 13:32N 47°39' W 122°22'0 0.0
2016-Jun-19 12:32N 47°39' W 122°22'0 0.0
2016-Jun-19 11:32N 47°39' W 122°22'0 0.0
2016-Jun-19 10:32N 47°39' W 122°22'0 0.0
2016-Jun-19 09:33N 47°39' W 122°22'0 0.0
2016-Jun-19 08:32N 47°39' W 122°22'0 0.0
2016-Jun-19 07:33N 47°39' W 122°22'0 0.0
2016-Jun-19 06:33N 47°39' W 122°22'0 0.0
2016-Jun-19 05:32N 47°39' W 122°22'0 0.0
2016-Jun-19 04:32N 47°39' W 122°22'0 0.0
2016-Jun-19 03:32N 47°39' W 122°22'0 0.0
2016-Jun-19 02:33N 47°39' W 122°22'0 0.0
2016-Jun-19 01:33N 47°39' W 122°22'0 0.0
2016-Jun-19 00:32N 47°39' W 122°22'0 0.0
2016-Jun-18 23:32N 47°39' W 122°22'0 0.0
2016-Jun-18 22:33N 47°39' W 122°22'0 0.0
2016-Jun-18 21:33N 47°39' W 122°22'0 0.0
2016-Jun-18 20:33N 47°39' W 122°22'0 0.0
2016-Jun-18 19:33N 47°39' W 122°22'0 0.0
2016-Jun-18 18:33N 47°39' W 122°22'0 0.0
2016-Jun-18 17:33N 47°39' W 122°22'0 0.0
2016-Jun-18 16:33N 47°39' W 122°22'0 0.0
2016-Jun-18 15:32N 47°39' W 122°22'0 0.0
2016-Jun-18 14:33N 47°39' W 122°22'0 0.0
2016-Jun-18 13:33N 47°39' W 122°22'0 0.0
2016-Jun-18 12:33N 47°39' W 122°22'0 0.0
2016-Jun-18 11:33N 47°39' W 122°22'0 0.0
2016-Jun-18 10:33N 47°39' W 122°22'0 0.0
2016-Jun-18 09:33N 47°39' W 122°22'0 0.0
2016-Jun-18 08:33N 47°39' W 122°22'0 0.0
2016-Jun-18 07:32N 47°39' W 122°22'0 0.0
2016-Jun-18 06:33N 47°39' W 122°22'0 0.0
2016-Jun-18 05:33N 47°39' W 122°22'0 0.0
2016-Jun-18 04:30N 47°39' W 122°22'0 0.0
2016-Jun-18 03:32N 47°39' W 122°22'0 0.0
2016-Jun-18 02:32N 47°39' W 122°22'0 0.0
2016-Jun-18 01:32N 47°39' W 122°22'0 0.0
2016-Jun-18 00:30N 47°39' W 122°22'0 0.0
2016-Jun-17 23:30N 47°39' W 122°22'0 0.0
2016-Jun-17 22:29N 47°39' W 122°22'0 0.0
2016-Jun-17 21:32N 47°39' W 122°22'0 0.0
2016-Jun-17 20:32N 47°39' W 122°22'0 0.0
2016-Jun-17 19:32N 47°39' W 122°22'0 0.0
2016-Jun-17 18:32N 47°39' W 122°22'0 0.0
2016-Jun-17 17:33N 47°39' W 122°22'0 0.0
2016-Jun-17 16:33N 47°39' W 122°22'0 0.0
2016-Jun-17 15:33N 47°39' W 122°22'0 0.0
2016-Jun-17 14:31N 47°39' W 122°22'0 0.0
2016-Jun-17 13:31N 47°39' W 122°22'0 0.0
2016-Jun-17 12:32N 47°39' W 122°22'0 0.0
2016-Jun-17 11:32N 47°39' W 122°22'0 0.0
2016-Jun-17 10:32N 47°39' W 122°22'0 0.0
2016-Jun-17 09:32N 47°39' W 122°22'0 0.0
2016-Jun-17 08:32N 47°39' W 122°22'0 0.0
2016-Jun-17 07:32N 47°39' W 122°22'0 0.0
2016-Jun-17 06:32N 47°39' W 122°22'0 0.0
2016-Jun-17 05:32N 47°39' W 122°22'0 0.0
2016-Jun-17 04:31N 47°39' W 122°22'0 0.0
2016-Jun-17 03:32N 47°39' W 122°22'0 0.0
2016-Jun-17 02:31N 47°39' W 122°22'0 0.0
2016-Jun-17 01:31N 47°39' W 122°22'0 0.0
2016-Jun-17 00:28N 47°39' W 122°22'0 0.0
2016-Jun-16 23:32N 47°39' W 122°22'0 0.0
2016-Jun-16 22:31N 47°39' W 122°22'0 0.0
2016-Jun-16 21:31N 47°39' W 122°22'0 0.0
2016-Jun-16 20:31N 47°39' W 122°22'0 0.0
2016-Jun-16 19:31N 47°39' W 122°22'0 0.0
2016-Jun-16 18:31N 47°39' W 122°22'0 0.0
2016-Jun-16 17:32N 47°39' W 122°22'0 0.0
2016-Jun-16 16:31N 47°39' W 122°22'0 0.0
2016-Jun-16 15:31N 47°39' W 122°22'0 0.0
2016-Jun-16 14:31N 47°39' W 122°22'0 0.0
2016-Jun-16 13:32N 47°39' W 122°22'0 0.0
2016-Jun-16 12:31N 47°39' W 122°22'0 0.0
2016-Jun-16 11:31N 47°39' W 122°22'0 0.0
2016-Jun-16 10:32N 47°39' W 122°22'0 0.0
2016-Jun-16 09:31N 47°39' W 122°22'0 0.0
2016-Jun-16 08:31N 47°39' W 122°22'0 0.0
2016-Jun-16 07:32N 47°39' W 122°22'0 0.0
2016-Jun-16 06:31N 47°39' W 122°22'0 0.0
2016-Jun-16 05:31N 47°39' W 122°22'0 0.0
2016-Jun-16 04:32N 47°39' W 122°22'0 0.0
2016-Jun-16 03:26N 47°39' W 122°22'0 0.0
2016-Jun-16 02:31N 47°39' W 122°22'0 0.0
2016-Jun-16 01:32N 47°39' W 122°22'0 0.0
2016-Jun-16 00:31N 47°39' W 122°22'0 0.0
2016-Jun-15 23:32N 47°39' W 122°22'0 0.0
2016-Jun-15 22:32N 47°39' W 122°22'0 0.0
2016-Jun-15 21:32N 47°39' W 122°22'0 0.0
2016-Jun-15 20:32N 47°39' W 122°22'0 0.0
2016-Jun-15 19:32N 47°39' W 122°22'0 0.0
2016-Jun-15 18:32N 47°39' W 122°22'0 0.0
2016-Jun-15 17:33N 47°39' W 122°22'0 0.0
2016-Jun-15 16:32N 47°39' W 122°22'0 0.0
2016-Jun-15 15:30N 47°39' W 122°22'0 0.0
2016-Jun-15 14:32N 47°39' W 122°22'0 0.0
2016-Jun-15 13:32N 47°39' W 122°22'0 0.0
2016-Jun-15 12:33N 47°39' W 122°22'0 0.0
2016-Jun-15 11:33N 47°39' W 122°22'0 0.0
2016-Jun-15 10:33N 47°39' W 122°22'0 0.0
2016-Jun-15 09:32N 47°39' W 122°22'0 0.0
2016-Jun-15 08:32N 47°39' W 122°22'0 0.0
2016-Jun-15 07:33N 47°39' W 122°22'0 0.0
2016-Jun-15 06:33N 47°39' W 122°22'0 0.0
2016-Jun-15 05:33N 47°39' W 122°22'0 0.0
2016-Jun-15 04:32N 47°39' W 122°22'0 0.0
2016-Jun-15 03:33N 47°39' W 122°22'0 0.0
2016-Jun-15 02:32N 47°39' W 122°22'0 0.0
2016-Jun-15 01:33N 47°39' W 122°22'0 0.0
2016-Jun-15 00:32N 47°39' W 122°22'0 0.0
2016-Jun-14 23:33N 47°39' W 122°22'0 0.0
2016-Jun-14 22:32N 47°39' W 122°22'1 1.0
2016-Jun-14 21:33N 47°40' W 122°23'0 0.0
2016-Jun-14 20:33N 47°40' W 122°23'0 0.0
2016-Jun-14 15:31N 47°40' W 122°23'0 0.0
2016-Jun-14 14:31N 47°40' W 122°23'0 0.0
2016-Jun-14 13:31N 47°40' W 122°23'0 0.0
2016-Jun-13 23:08N 47°40' W 122°23'1 1.5
2016-Jun-13 22:34N 47°40' W 122°22'  

Dump ship's entire track history